createdAt,value
2018-11-11T00:00:10.775Z,40.67
2018-11-11T00:00:44.865Z,39.83
2018-11-11T00:01:19.296Z,41.05
2018-11-11T00:01:53.749Z,41.77
2018-11-11T00:02:27.828Z,41.73
2018-11-11T00:03:01.929Z,42.67
2018-11-11T00:03:36.102Z,40.35
2018-11-11T00:04:10.175Z,42.23
2018-11-11T00:04:44.311Z,41.58
2018-11-11T00:05:18.754Z,40.60
2018-11-11T00:05:52.838Z,43.02
2018-11-11T00:06:26.961Z,41.75
2018-11-11T00:07:01.391Z,42.50
2018-11-11T00:07:35.818Z,42.03
2018-11-11T00:08:09.910Z,42.93
2018-11-11T00:08:44.011Z,41.33
2018-11-11T00:09:18.437Z,41.50
2018-11-11T00:09:52.619Z,43.23
2018-11-11T00:10:27.046Z,41.85
2018-11-11T00:11:01.501Z,41.02
2018-11-11T00:11:35.596Z,40.98
2018-11-11T00:12:09.808Z,43.10
2018-11-11T00:12:44.240Z,42.35
2018-11-11T00:13:18.072Z,43.93
2018-11-11T00:13:52.183Z,43.10
2018-11-11T00:14:26.537Z,43.13
2018-11-11T00:15:00.663Z,42.53
2018-11-11T00:15:34.801Z,42.35
2018-11-11T00:16:09.220Z,42.23
2018-11-11T00:16:43.369Z,43.15
2018-11-11T00:17:17.193Z,42.00
2018-11-11T00:17:51.300Z,42.13
2018-11-11T00:18:25.394Z,42.55
2018-11-11T00:18:59.859Z,41.80
2018-11-11T00:19:33.684Z,41.17
2018-11-11T00:20:09.037Z,43.70
2018-11-11T00:20:43.252Z,44.00
2018-11-11T00:21:17.356Z,41.35
2018-11-11T00:21:51.468Z,42.60
2018-11-11T00:22:26.077Z,42.78
2018-11-11T00:23:00.533Z,42.50
2018-11-11T00:23:34.624Z,43.00
2018-11-11T00:24:08.749Z,43.60
2018-11-11T00:24:42.581Z,43.03
2018-11-11T00:25:17.119Z,41.90
2018-11-11T00:25:51.149Z,42.87
2018-11-11T00:26:25.582Z,43.42
2018-11-11T00:26:59.717Z,42.45
2018-11-11T00:27:34.061Z,43.00
2018-11-11T00:28:08.199Z,43.00
2018-11-11T00:28:42.347Z,42.78
2018-11-11T00:29:16.951Z,42.45
2018-11-11T00:29:51.049Z,44.77
2018-11-11T00:30:25.195Z,42.08
2018-11-11T00:30:59.283Z,42.38
2018-11-11T00:31:33.450Z,42.48
2018-11-11T00:32:08.172Z,41.53
2018-11-11T00:32:42.285Z,42.83
2018-11-11T00:33:16.414Z,43.55
2018-11-11T00:33:50.529Z,42.62
2018-11-11T00:34:24.604Z,43.95
2018-11-11T00:34:58.707Z,45.12
2018-11-11T00:35:33.180Z,43.85
2018-11-11T00:36:07.278Z,41.28
2018-11-11T00:36:41.701Z,42.30
2018-11-11T00:37:16.148Z,41.70
2018-11-11T00:37:50.233Z,43.87
2018-11-11T00:38:24.699Z,43.42
2018-11-11T00:38:59.312Z,43.30
2018-11-11T00:39:33.468Z,43.78
2018-11-11T00:40:08.294Z,45.00
2018-11-11T00:40:42.464Z,44.85
2018-11-11T00:41:16.579Z,44.13
2018-11-11T00:41:50.992Z,42.55
2018-11-11T00:42:25.405Z,42.80
2018-11-11T00:42:59.840Z,44.58
2018-11-11T00:43:33.964Z,40.85
2018-11-11T00:44:08.042Z,43.40
2018-11-11T00:44:42.129Z,43.25
2018-11-11T00:45:16.677Z,41.73
2018-11-11T00:45:50.813Z,43.10
2018-11-11T00:46:25.259Z,41.85
2018-11-11T00:46:59.359Z,45.00
2018-11-11T00:47:33.463Z,42.65
2018-11-11T00:48:07.974Z,42.78
2018-11-11T00:48:42.404Z,42.85
2018-11-11T00:49:17.191Z,44.23
2018-11-11T00:49:51.291Z,42.95
2018-11-11T00:50:25.415Z,43.48
2018-11-11T00:50:59.871Z,42.23
2018-11-11T00:51:34.305Z,42.58
2018-11-11T00:52:08.948Z,43.20
2018-11-11T00:52:43.474Z,42.60
2018-11-11T00:53:19.717Z,42.53
2018-11-11T00:53:53.852Z,43.80
2018-11-11T00:54:28.628Z,43.30
2018-11-11T00:55:03.097Z,41.83
2018-11-11T00:55:39.517Z,44.15
2018-11-11T00:56:14.009Z,43.42
2018-11-11T00:56:48.497Z,44.95
2018-11-11T00:57:22.912Z,43.23
2018-11-11T00:57:57.103Z,41.90
2018-11-11T00:58:31.225Z,43.45
2018-11-11T00:59:06.069Z,45.20
2018-11-11T00:59:40.478Z,42.58
2018-11-11T01:00:17.595Z,43.75
2018-11-11T01:00:51.709Z,42.30
2018-11-11T01:01:26.330Z,43.05
2018-11-11T01:02:00.429Z,42.53
2018-11-11T01:02:34.912Z,44.23
2018-11-11T01:03:09.021Z,42.73
2018-11-11T01:03:43.111Z,42.75
2018-11-11T01:04:17.537Z,41.68
2018-11-11T01:04:51.657Z,43.80
2018-11-11T01:05:26.432Z,45.08
2018-11-11T01:06:00.886Z,44.30
2018-11-11T01:06:35.367Z,42.45
2018-11-11T01:07:09.483Z,41.98
2018-11-11T01:07:44.482Z,44.35
2018-11-11T01:08:19.031Z,43.00
2018-11-11T01:08:53.128Z,42.20
2018-11-11T01:09:26.983Z,44.23
2018-11-11T01:10:01.435Z,41.30
2018-11-11T01:10:36.031Z,42.08
2018-11-11T01:11:10.113Z,40.38
2018-11-11T01:11:44.316Z,44.23
2018-11-11T01:12:18.809Z,41.85
2018-11-11T01:12:53.019Z,41.50
2018-11-11T01:13:26.919Z,41.63
2018-11-11T01:14:01.381Z,44.65
2018-11-11T01:14:35.851Z,43.42
2018-11-11T01:15:12.301Z,44.48
2018-11-11T01:15:46.404Z,44.95
2018-11-11T01:16:20.878Z,44.35
2018-11-11T01:16:55.076Z,40.67
2018-11-11T01:17:36.448Z,44.25
2018-11-11T01:18:10.545Z,43.85
2018-11-11T01:18:44.948Z,42.62
2018-11-11T01:19:19.653Z,43.80
2018-11-11T01:19:53.746Z,42.88
2018-11-11T01:20:27.969Z,44.57
2018-11-11T01:21:02.436Z,42.62
2018-11-11T01:21:36.702Z,43.67
2018-11-11T01:22:10.835Z,41.42
2018-11-11T01:22:45.724Z,43.92
2018-11-11T01:23:19.814Z,45.75
2018-11-11T01:23:54.275Z,43.58
2018-11-11T01:24:28.377Z,43.50
2018-11-11T01:25:02.562Z,44.43
2018-11-11T01:25:36.767Z,43.73
2018-11-11T01:26:11.534Z,41.92
2018-11-11T01:26:45.954Z,43.23
2018-11-11T01:27:20.109Z,41.18
2018-11-11T01:27:53.941Z,42.17
2018-11-11T01:28:28.033Z,42.30
2018-11-11T01:29:02.490Z,40.73
2018-11-11T01:29:36.589Z,42.62
2018-11-11T01:30:17.528Z,44.27
2018-11-11T01:30:51.957Z,42.58
2018-11-11T01:31:26.445Z,43.40
2018-11-11T01:32:00.558Z,42.83
2018-11-11T01:32:34.923Z,42.58
2018-11-11T01:33:09.024Z,45.78
2018-11-11T01:33:43.143Z,43.23
2018-11-11T01:34:17.262Z,43.23
2018-11-11T01:34:51.089Z,44.20
2018-11-11T01:35:25.218Z,44.48
2018-11-11T01:35:59.301Z,41.55
2018-11-11T01:36:34.091Z,42.98
2018-11-11T01:37:08.729Z,43.73
2018-11-11T01:37:43.894Z,45.17
2018-11-11T01:38:18.065Z,42.95
2018-11-11T01:38:52.165Z,44.13
2018-11-11T01:39:26.430Z,44.50
2018-11-11T01:40:00.849Z,42.23
2018-11-11T01:40:34.949Z,44.95
2018-11-11T01:41:09.060Z,45.85
2018-11-11T01:41:43.165Z,44.23
2018-11-11T01:42:17.261Z,46.73
2018-11-11T01:42:51.707Z,44.08
2018-11-11T01:43:25.821Z,45.95
2018-11-11T01:44:00.302Z,45.03
2018-11-11T01:44:35.081Z,46.20
2018-11-11T01:45:12.663Z,44.80
2018-11-11T01:45:47.133Z,44.38
2018-11-11T01:46:21.341Z,43.75
2018-11-11T01:46:56.152Z,44.10
2018-11-11T01:47:30.272Z,43.65
2018-11-11T01:48:04.425Z,45.43
2018-11-11T01:48:38.640Z,46.35
2018-11-11T01:49:13.517Z,47.03
2018-11-11T01:49:47.621Z,43.98
2018-11-11T01:50:22.184Z,45.20
2018-11-11T01:50:56.326Z,44.80
2018-11-11T01:51:30.471Z,43.50
2018-11-11T01:52:05.141Z,46.33
2018-11-11T01:52:39.996Z,45.83
2018-11-11T01:53:14.165Z,46.42
2018-11-11T01:53:48.569Z,45.05
2018-11-11T01:54:22.700Z,45.60
2018-11-11T01:54:56.802Z,47.78
2018-11-11T01:55:31.013Z,44.08
2018-11-11T01:56:05.728Z,45.23
2018-11-11T01:56:40.497Z,44.00
2018-11-11T01:57:15.011Z,42.80
2018-11-11T01:57:49.107Z,44.25
2018-11-11T01:58:23.568Z,45.30
2018-11-11T01:58:57.672Z,43.60
2018-11-11T01:59:31.749Z,44.67
2018-11-11T02:00:08.937Z,46.20
2018-11-11T02:00:43.697Z,47.25
2018-11-11T02:01:18.139Z,47.25
2018-11-11T02:01:52.673Z,45.50
2018-11-11T02:02:26.512Z,46.80
2018-11-11T02:03:00.335Z,43.90
2018-11-11T02:03:34.845Z,44.42
2018-11-11T02:04:08.956Z,46.05
2018-11-11T02:04:43.400Z,46.55
2018-11-11T02:05:17.473Z,44.77
2018-11-11T02:05:51.603Z,48.08
2018-11-11T02:06:25.687Z,43.63
2018-11-11T02:07:00.127Z,46.18
2018-11-11T02:07:34.549Z,46.95
2018-11-11T02:08:08.730Z,44.05
2018-11-11T02:08:42.857Z,47.80
2018-11-11T02:09:17.048Z,46.88
2018-11-11T02:09:51.380Z,45.30
2018-11-11T02:10:26.325Z,45.12
2018-11-11T02:11:00.465Z,44.05
2018-11-11T02:11:34.900Z,45.52
2018-11-11T02:12:09.376Z,45.40
2018-11-11T02:12:44.801Z,45.08
2018-11-11T02:13:19.251Z,45.08
2018-11-11T02:13:53.459Z,45.57
2018-11-11T02:14:27.552Z,45.73
2018-11-11T02:15:01.647Z,45.05
2018-11-11T02:15:35.769Z,45.48
2018-11-11T02:16:10.259Z,46.13
2018-11-11T02:16:45.036Z,46.23
2018-11-11T02:17:19.279Z,46.90
2018-11-11T02:17:53.714Z,48.45
2018-11-11T02:18:27.817Z,45.35
2018-11-11T02:19:02.617Z,46.68
2018-11-11T02:19:36.749Z,45.63
2018-11-11T02:20:13.461Z,45.17
2018-11-11T02:20:47.572Z,44.83
2018-11-11T02:21:21.694Z,43.80
2018-11-11T02:21:56.367Z,44.25
2018-11-11T02:22:30.483Z,43.45
2018-11-11T02:23:05.047Z,47.83
2018-11-11T02:23:39.492Z,48.38
2018-11-11T02:24:13.638Z,46.95
2018-11-11T02:24:47.733Z,45.20
2018-11-11T02:25:22.175Z,44.70
2018-11-11T02:25:56.344Z,47.15
2018-11-11T02:26:30.467Z,46.90
2018-11-11T02:27:05.363Z,44.03
2018-11-11T02:27:39.610Z,47.20
2018-11-11T02:28:14.048Z,47.10
2018-11-11T02:28:48.839Z,45.90
2018-11-11T02:29:23.949Z,43.87
2018-11-11T02:29:58.050Z,44.18
2018-11-11T02:30:32.518Z,45.60
2018-11-11T02:31:07.437Z,44.65
2018-11-11T02:31:41.563Z,45.10
2018-11-11T02:32:15.757Z,44.50
2018-11-11T02:32:50.712Z,44.25
2018-11-11T02:33:24.825Z,45.40
2018-11-11T02:33:58.973Z,46.02
2018-11-11T02:34:33.117Z,44.83
2018-11-11T02:35:07.416Z,45.67
2018-11-11T02:35:41.533Z,45.40
2018-11-11T02:36:15.639Z,45.80
2018-11-11T02:36:50.143Z,44.95
2018-11-11T02:37:24.292Z,47.93
2018-11-11T02:37:58.613Z,45.12
2018-11-11T02:38:32.707Z,45.15
2018-11-11T02:39:08.042Z,44.40
2018-11-11T02:39:42.201Z,44.45
2018-11-11T02:40:17.589Z,45.45
2018-11-11T02:40:52.058Z,45.90
2018-11-11T02:41:26.198Z,45.95
2018-11-11T02:42:00.573Z,46.65
2018-11-11T02:42:34.660Z,45.60
2018-11-11T02:43:09.436Z,43.87
2018-11-11T02:43:43.591Z,44.38
2018-11-11T02:44:18.011Z,44.90
2018-11-11T02:44:52.480Z,46.83
2018-11-11T02:45:26.569Z,43.95
2018-11-11T02:46:00.682Z,43.95
2018-11-11T02:46:34.749Z,45.65
2018-11-11T02:47:09.529Z,46.65
2018-11-11T02:47:43.973Z,45.43
2018-11-11T02:48:18.093Z,44.80
2018-11-11T02:48:52.197Z,45.65
2018-11-11T02:49:26.353Z,44.80
2018-11-11T02:50:00.805Z,45.85
2018-11-11T02:50:34.899Z,44.10
2018-11-11T02:51:09.341Z,45.95
2018-11-11T02:51:43.754Z,44.40
2018-11-11T02:52:17.822Z,45.98
2018-11-11T02:52:51.665Z,45.60
2018-11-11T02:53:26.118Z,44.05
2018-11-11T02:54:00.196Z,46.18
2018-11-11T02:54:34.297Z,45.03
2018-11-11T02:55:09.294Z,43.98
2018-11-11T02:55:43.371Z,45.08
2018-11-11T02:56:17.469Z,43.90
2018-11-11T02:56:51.573Z,42.08
2018-11-11T02:57:25.877Z,43.90
2018-11-11T02:58:00.317Z,44.88
2018-11-11T02:58:34.438Z,42.53
2018-11-11T02:59:09.098Z,44.42
2018-11-11T02:59:43.212Z,44.88
2018-11-11T03:00:18.762Z,42.78
2018-11-11T03:00:53.183Z,44.60
2018-11-11T03:01:27.251Z,44.45
2018-11-11T03:02:01.352Z,44.48
2018-11-11T03:02:35.752Z,44.67
2018-11-11T03:03:09.870Z,44.18
2018-11-11T03:03:44.331Z,45.38
2018-11-11T03:04:18.810Z,43.23
2018-11-11T03:04:53.037Z,45.58
2018-11-11T03:05:27.536Z,42.93
2018-11-11T03:06:01.606Z,43.00
2018-11-11T03:06:35.681Z,44.25
2018-11-11T03:07:09.782Z,45.10
2018-11-11T03:07:43.879Z,44.90
2018-11-11T03:08:17.999Z,45.63
2018-11-11T03:08:52.410Z,42.88
2018-11-11T03:09:27.210Z,43.00
2018-11-11T03:10:01.284Z,44.48
2018-11-11T03:10:35.810Z,43.28
2018-11-11T03:11:09.989Z,42.78
2018-11-11T03:11:44.082Z,44.38
2018-11-11T03:12:18.289Z,46.83
2018-11-11T03:12:52.705Z,43.87
2018-11-11T03:13:26.826Z,42.83
2018-11-11T03:14:00.933Z,43.48
2018-11-11T03:14:35.038Z,44.20
2018-11-11T03:15:10.230Z,43.63
2018-11-11T03:15:44.358Z,44.18
2018-11-11T03:16:18.450Z,44.55
2018-11-11T03:16:52.546Z,42.50
2018-11-11T03:17:27.400Z,42.50
2018-11-11T03:18:01.854Z,43.25
2018-11-11T03:18:35.989Z,42.48
2018-11-11T03:19:10.422Z,45.67
2018-11-11T03:19:44.523Z,43.83
2018-11-11T03:20:19.061Z,43.58
2018-11-11T03:20:53.189Z,44.85
2018-11-11T03:21:27.525Z,44.10
2018-11-11T03:22:01.653Z,43.08
2018-11-11T03:22:35.770Z,43.40
2018-11-11T03:23:09.862Z,43.50
2018-11-11T03:23:43.969Z,43.87
2018-11-11T03:24:19.045Z,41.92
2018-11-11T03:24:53.160Z,43.52
2018-11-11T03:25:27.289Z,46.85
2018-11-11T03:26:01.426Z,43.83
2018-11-11T03:26:35.795Z,44.20
2018-11-11T03:27:09.893Z,42.73
2018-11-11T03:27:44.504Z,43.17
2018-11-11T03:28:18.604Z,45.80
2018-11-11T03:28:52.738Z,44.58
2018-11-11T03:29:26.871Z,44.95
2018-11-11T03:30:00.977Z,43.17
2018-11-11T03:30:35.062Z,44.90
2018-11-11T03:31:09.244Z,42.95
2018-11-11T03:31:43.390Z,44.83
2018-11-11T03:32:17.854Z,45.20
2018-11-11T03:32:52.032Z,43.17
2018-11-11T03:33:26.268Z,44.40
2018-11-11T03:34:00.379Z,44.95
2018-11-11T03:34:34.474Z,44.75
2018-11-11T03:35:10.479Z,43.13
2018-11-11T03:35:45.339Z,44.08
2018-11-11T03:36:19.768Z,43.75
2018-11-11T03:36:54.397Z,43.65
2018-11-11T03:37:28.842Z,41.65
2018-11-11T03:38:02.923Z,44.23
2018-11-11T03:38:37.065Z,43.75
2018-11-11T03:39:11.326Z,42.50
2018-11-11T03:39:45.412Z,43.35
2018-11-11T03:40:20.633Z,46.40
2018-11-11T03:40:55.072Z,43.75
2018-11-11T03:41:29.278Z,43.95
2018-11-11T03:42:03.365Z,42.90
2018-11-11T03:42:37.849Z,42.33
2018-11-11T03:43:12.258Z,42.75
2018-11-11T03:43:46.722Z,44.13
2018-11-11T03:44:20.904Z,42.65
2018-11-11T03:44:55.364Z,44.13
2018-11-11T03:45:29.474Z,44.67
2018-11-11T03:46:03.914Z,43.40
2018-11-11T03:46:38.440Z,43.05
2018-11-11T03:47:12.889Z,43.05
2018-11-11T03:47:48.326Z,43.55
2018-11-11T03:48:22.462Z,43.65
2018-11-11T03:48:56.595Z,41.37
2018-11-11T03:49:30.718Z,40.58
2018-11-11T03:50:06.027Z,43.75
2018-11-11T03:50:40.486Z,43.30
2018-11-11T03:51:14.585Z,44.60
2018-11-11T03:51:48.732Z,41.50
2018-11-11T03:52:22.939Z,43.28
2018-11-11T03:52:57.060Z,44.65
2018-11-11T03:53:31.510Z,42.43
2018-11-11T03:54:05.938Z,44.65
2018-11-11T03:54:40.062Z,42.30
2018-11-11T03:55:14.198Z,44.45
2018-11-11T03:55:48.659Z,44.00
2018-11-11T03:56:23.142Z,43.78
2018-11-11T03:56:57.536Z,42.33
2018-11-11T03:57:31.659Z,41.45
2018-11-11T03:58:05.798Z,45.05
2018-11-11T03:58:39.964Z,43.25
2018-11-11T03:59:14.227Z,44.30
2018-11-11T03:59:48.362Z,43.63
2018-11-11T04:00:22.546Z,41.53
2018-11-11T04:00:56.696Z,43.75
2018-11-11T04:01:31.150Z,43.52
2018-11-11T04:02:05.664Z,42.13
2018-11-11T04:02:40.158Z,42.78
2018-11-11T04:03:14.579Z,39.55
2018-11-11T04:03:49.022Z,41.65
2018-11-11T04:04:23.438Z,43.65
2018-11-11T04:04:57.558Z,43.25
2018-11-11T04:05:31.994Z,42.13
2018-11-11T04:06:06.466Z,42.93
2018-11-11T04:06:40.624Z,43.20
2018-11-11T04:07:14.749Z,43.35
2018-11-11T04:07:48.892Z,41.83
2018-11-11T04:08:22.967Z,44.18
2018-11-11T04:08:57.055Z,42.67
2018-11-11T04:09:31.157Z,44.40
2018-11-11T04:10:07.441Z,43.95
2018-11-11T04:10:42.129Z,42.67
2018-11-11T04:11:16.537Z,45.28
2018-11-11T04:11:50.968Z,43.83
2018-11-11T04:12:25.144Z,46.13
2018-11-11T04:12:59.246Z,41.92
2018-11-11T04:13:33.327Z,43.78
2018-11-11T04:14:08.390Z,42.23
2018-11-11T04:14:42.813Z,42.03
2018-11-11T04:15:18.117Z,41.65
2018-11-11T04:15:52.207Z,43.40
2018-11-11T04:16:27.011Z,42.98
2018-11-11T04:17:01.122Z,41.70
2018-11-11T04:17:35.884Z,43.60
2018-11-11T04:18:10.008Z,42.20
2018-11-11T04:18:44.441Z,43.70
2018-11-11T04:19:18.899Z,40.03
2018-11-11T04:19:52.982Z,42.60
2018-11-11T04:20:27.091Z,41.60
2018-11-11T04:21:01.861Z,45.43
2018-11-11T04:21:36.021Z,42.80
2018-11-11T04:22:15.634Z,42.20
2018-11-11T04:22:50.164Z,43.55
2018-11-11T04:23:24.322Z,43.02
2018-11-11T04:23:58.417Z,43.10
2018-11-11T04:24:32.538Z,42.78
2018-11-11T04:25:06.920Z,42.88
2018-11-11T04:25:41.046Z,43.00
2018-11-11T04:26:15.464Z,43.30
2018-11-11T04:26:49.592Z,41.90
2018-11-11T04:27:24.019Z,44.85
2018-11-11T04:27:58.556Z,43.83
2018-11-11T04:28:32.628Z,43.83
2018-11-11T04:29:06.722Z,43.20
2018-11-11T04:29:40.951Z,43.35
2018-11-11T04:30:15.908Z,42.80
2018-11-11T04:30:50.502Z,43.52
2018-11-11T04:31:24.606Z,39.63
2018-11-11T04:31:58.702Z,41.18
2018-11-11T04:32:32.822Z,40.55
2018-11-11T04:33:06.957Z,42.30
2018-11-11T04:33:41.366Z,41.68
2018-11-11T04:34:15.779Z,41.30
2018-11-11T04:34:49.867Z,41.98
2018-11-11T04:35:24.312Z,42.23
2018-11-11T04:35:58.396Z,41.75
2018-11-11T04:36:32.857Z,41.60
2018-11-11T04:37:07.710Z,39.55
2018-11-11T04:37:42.222Z,42.88
2018-11-11T04:38:17.167Z,43.02
2018-11-11T04:38:51.865Z,43.15
2018-11-11T04:39:26.856Z,40.05
2018-11-11T04:40:00.965Z,39.88
2018-11-11T04:40:35.904Z,42.23
2018-11-11T04:41:10.002Z,42.53
2018-11-11T04:41:45.006Z,41.83
2018-11-11T04:42:19.904Z,41.18
2018-11-11T04:42:54.055Z,42.73
2018-11-11T04:43:28.909Z,39.42
2018-11-11T04:44:03.004Z,40.88
2018-11-11T04:44:38.100Z,40.12
2018-11-11T04:45:14.126Z,40.48
2018-11-11T04:45:48.249Z,42.60
2018-11-11T04:46:22.831Z,41.55
2018-11-11T04:46:57.870Z,40.45
2018-11-11T04:47:32.576Z,39.78
2018-11-11T04:48:07.451Z,39.95
2018-11-11T04:48:41.699Z,41.50
2018-11-11T04:49:17.576Z,40.38
2018-11-11T04:49:52.194Z,41.63
2018-11-11T04:50:26.294Z,41.98
2018-11-11T04:51:00.408Z,41.40
2018-11-11T04:51:34.590Z,41.40
2018-11-11T04:52:09.448Z,43.05
2018-11-11T04:52:44.690Z,42.27
2018-11-11T04:53:18.821Z,41.02
2018-11-11T04:53:53.000Z,40.92
2018-11-11T04:54:27.114Z,42.43
2018-11-11T04:55:01.254Z,39.95
2018-11-11T04:55:35.384Z,42.10
2018-11-11T04:56:09.913Z,41.05
2018-11-11T04:56:44.014Z,41.40
2018-11-11T04:57:18.120Z,43.80
2018-11-11T04:57:52.216Z,41.50
2018-11-11T04:58:27.824Z,42.75
2018-11-11T04:59:01.934Z,43.45
2018-11-11T04:59:36.040Z,41.13
2018-11-11T05:00:11.882Z,38.42
2018-11-11T05:00:46.382Z,42.23
2018-11-11T05:01:20.549Z,42.33
2018-11-11T05:01:54.784Z,40.10
2018-11-11T05:02:28.892Z,41.15
2018-11-11T05:03:03.308Z,42.40
2018-11-11T05:03:37.382Z,40.00
2018-11-11T05:04:11.772Z,41.50
2018-11-11T05:04:45.962Z,43.10
2018-11-11T05:05:20.176Z,40.45
2018-11-11T05:05:54.258Z,39.95
2018-11-11T05:06:28.330Z,40.43
2018-11-11T05:07:03.089Z,41.60
2018-11-11T05:07:37.532Z,41.95
2018-11-11T05:08:11.664Z,40.92
2018-11-11T05:08:45.767Z,39.85
2018-11-11T05:09:20.244Z,38.92
2018-11-11T05:09:54.744Z,39.63
2018-11-11T05:10:29.732Z,40.08
2018-11-11T05:11:04.182Z,43.23
2018-11-11T05:11:38.888Z,40.15
2018-11-11T05:12:13.100Z,41.08
2018-11-11T05:12:47.197Z,41.65
2018-11-11T05:13:21.296Z,40.83
2018-11-11T05:13:55.392Z,40.35
2018-11-11T05:14:29.852Z,39.03
2018-11-11T05:15:04.096Z,39.67
2018-11-11T05:15:38.572Z,40.75
2018-11-11T05:16:12.799Z,39.48
2018-11-11T05:16:47.586Z,40.35
2018-11-11T05:17:21.680Z,41.77
2018-11-11T05:17:55.852Z,41.02
2018-11-11T05:18:30.016Z,38.67
2018-11-11T05:19:05.188Z,40.95
2018-11-11T05:19:39.321Z,41.60
2018-11-11T05:20:14.158Z,38.53
2018-11-11T05:20:48.293Z,42.88
2018-11-11T05:21:22.442Z,39.88
2018-11-11T05:21:56.602Z,40.70
2018-11-11T05:22:30.811Z,42.38
2018-11-11T05:23:05.440Z,40.75
2018-11-11T05:23:39.629Z,37.70
2018-11-11T05:24:13.754Z,40.70
2018-11-11T05:24:48.205Z,39.65
2018-11-11T05:25:22.344Z,38.70
2018-11-11T05:25:56.429Z,41.55
2018-11-11T05:26:30.524Z,40.03
2018-11-11T05:27:05.376Z,41.35
2018-11-11T05:27:39.940Z,42.25
2018-11-11T05:28:14.075Z,40.25
2018-11-11T05:28:48.164Z,41.53
2018-11-11T05:29:22.257Z,39.70
2018-11-11T05:29:56.351Z,39.85
2018-11-11T05:30:30.438Z,41.90
2018-11-11T05:31:04.888Z,41.33
2018-11-11T05:31:38.982Z,42.58
2018-11-11T05:32:13.080Z,43.95
2018-11-11T05:32:47.167Z,40.78
2018-11-11T05:33:21.240Z,41.58
2018-11-11T05:33:55.691Z,39.10
2018-11-11T05:34:30.128Z,41.25
2018-11-11T05:35:04.280Z,40.10
2018-11-11T05:35:38.364Z,40.70
2018-11-11T05:36:12.473Z,40.45
2018-11-11T05:36:46.564Z,42.60
2018-11-11T05:37:21.204Z,39.65
2018-11-11T05:37:55.295Z,41.30
2018-11-11T05:38:29.752Z,40.73
2018-11-11T05:39:04.728Z,39.13
2018-11-11T05:39:39.414Z,38.55
2018-11-11T05:40:14.129Z,39.35
2018-11-11T05:40:48.239Z,41.02
2018-11-11T05:41:22.322Z,41.55
2018-11-11T05:41:56.792Z,40.50
2018-11-11T05:42:31.100Z,39.42
2018-11-11T05:43:05.585Z,42.75
2018-11-11T05:43:39.674Z,41.40
2018-11-11T05:44:14.082Z,41.80
2018-11-11T05:44:48.203Z,40.30
2018-11-11T05:45:22.320Z,42.40
2018-11-11T05:45:56.469Z,40.90
2018-11-11T05:46:30.568Z,41.73
2018-11-11T05:47:05.035Z,41.48
2018-11-11T05:47:39.882Z,41.60
2018-11-11T05:48:14.024Z,39.92
2018-11-11T05:48:48.453Z,40.67
2018-11-11T05:49:22.770Z,42.78
2018-11-11T05:49:57.200Z,40.73
2018-11-11T05:50:31.348Z,41.65
2018-11-11T05:51:06.256Z,39.18
2018-11-11T05:51:40.453Z,42.35
2018-11-11T05:52:14.592Z,42.08
2018-11-11T05:52:48.725Z,41.65
2018-11-11T05:53:23.160Z,41.63
2018-11-11T05:53:57.264Z,41.58
2018-11-11T05:54:31.672Z,41.10
2018-11-11T05:55:07.248Z,40.03
2018-11-11T05:55:41.484Z,40.33
2018-11-11T05:56:16.353Z,40.15
2018-11-11T05:56:50.437Z,41.75
2018-11-11T05:57:24.858Z,40.92
2018-11-11T05:57:58.968Z,40.38
2018-11-11T05:58:33.347Z,40.10
2018-11-11T05:59:07.767Z,41.48
2018-11-11T05:59:41.915Z,39.55
2018-11-11T06:00:17.340Z,41.63
2018-11-11T06:00:51.509Z,38.38
2018-11-11T06:01:26.216Z,42.15
2018-11-11T06:02:00.353Z,41.92
2018-11-11T06:02:34.467Z,40.95
2018-11-11T06:03:08.960Z,41.25
2018-11-11T06:03:43.060Z,41.70
2018-11-11T06:04:17.482Z,40.78
2018-11-11T06:04:51.582Z,40.00
2018-11-11T06:05:25.681Z,40.63
2018-11-11T06:05:59.897Z,40.90
2018-11-11T06:06:33.996Z,42.48
2018-11-11T06:07:08.120Z,39.98
2018-11-11T06:07:42.627Z,41.10
2018-11-11T06:08:16.724Z,41.13
2018-11-11T06:08:50.826Z,41.58
2018-11-11T06:09:25.240Z,38.55
2018-11-11T06:09:59.334Z,40.92
2018-11-11T06:10:33.413Z,40.98
2018-11-11T06:11:07.651Z,40.30
2018-11-11T06:11:41.901Z,41.18
2018-11-11T06:12:15.994Z,40.43
2018-11-11T06:12:50.084Z,43.10
2018-11-11T06:13:24.542Z,42.25
2018-11-11T06:13:58.996Z,40.38
2018-11-11T06:14:33.699Z,41.42
2018-11-11T06:15:09.525Z,40.70
2018-11-11T06:15:43.627Z,40.88
2018-11-11T06:16:17.785Z,40.05
2018-11-11T06:16:51.893Z,41.83
2018-11-11T06:17:26.708Z,40.45
2018-11-11T06:18:00.818Z,39.67
2018-11-11T06:18:35.215Z,40.30
2018-11-11T06:19:09.453Z,42.13
2018-11-11T06:19:43.749Z,41.92
2018-11-11T06:20:18.189Z,40.10
2018-11-11T06:20:52.311Z,40.60
2018-11-11T06:21:26.788Z,40.40
2018-11-11T06:22:00.907Z,41.00
2018-11-11T06:22:35.046Z,40.88
2018-11-11T06:23:09.299Z,40.28
2018-11-11T06:23:44.092Z,41.73
2018-11-11T06:24:18.215Z,43.42
2018-11-11T06:24:52.349Z,40.78
2018-11-11T06:25:26.509Z,42.03
2018-11-11T06:26:01.047Z,41.85
2018-11-11T06:26:35.234Z,41.45
2018-11-11T06:27:09.357Z,42.25
2018-11-11T06:27:43.813Z,42.43
2018-11-11T06:28:17.901Z,41.77
2018-11-11T06:28:52.111Z,40.58
2018-11-11T06:29:26.242Z,40.95
2018-11-11T06:30:00.372Z,41.23
2018-11-11T06:30:34.793Z,40.33
2018-11-11T06:31:08.945Z,42.45
2018-11-11T06:31:43.113Z,43.70
2018-11-11T06:32:17.582Z,41.33
2018-11-11T06:32:51.794Z,41.10
2018-11-11T06:33:25.883Z,42.08
2018-11-11T06:34:00.049Z,41.68
2018-11-11T06:34:34.362Z,41.15
2018-11-11T06:35:08.510Z,41.70
2018-11-11T06:35:42.629Z,39.88
2018-11-11T06:36:16.748Z,40.52
2018-11-11T06:36:50.873Z,42.40
2018-11-11T06:37:24.985Z,40.60
2018-11-11T06:37:59.093Z,41.55
2018-11-11T06:38:33.193Z,38.70
2018-11-11T06:39:09.879Z,42.85
2018-11-11T06:39:43.974Z,41.73
2018-11-11T06:40:18.071Z,41.83
2018-11-11T06:40:52.169Z,42.23
2018-11-11T06:41:26.293Z,42.58
2018-11-11T06:42:00.766Z,41.63
2018-11-11T06:42:34.877Z,40.10
2018-11-11T06:43:09.313Z,43.00
2018-11-11T06:43:43.709Z,44.50
2018-11-11T06:44:17.809Z,42.17
2018-11-11T06:44:51.901Z,41.33
2018-11-11T06:45:26.024Z,44.73
2018-11-11T06:46:00.125Z,40.88
2018-11-11T06:46:34.257Z,41.30
2018-11-11T06:47:08.405Z,41.15
2018-11-11T06:47:43.312Z,41.92
2018-11-11T06:48:17.437Z,40.55
2018-11-11T06:48:51.559Z,38.10
2018-11-11T06:49:25.729Z,40.52
2018-11-11T06:49:59.878Z,42.70
2018-11-11T06:50:34.031Z,41.85
2018-11-11T06:51:08.232Z,42.17
2018-11-11T06:51:42.361Z,42.53
2018-11-11T06:52:16.837Z,40.10
2018-11-11T06:52:51.329Z,40.55
2018-11-11T06:53:40.365Z,40.10
2018-11-11T06:54:14.529Z,40.80
2018-11-11T06:54:48.709Z,41.37
2018-11-11T06:55:22.858Z,41.02
2018-11-11T06:55:57.329Z,41.88
2018-11-11T06:56:31.431Z,40.50
2018-11-11T06:57:06.289Z,40.95
2018-11-11T06:57:41.080Z,41.20
2018-11-11T06:58:15.255Z,41.65
2018-11-11T06:58:49.485Z,41.37
2018-11-11T06:59:24.019Z,40.80
2018-11-11T06:59:58.109Z,40.48
2018-11-11T07:00:32.213Z,40.85
2018-11-11T07:01:06.817Z,39.83
2018-11-11T07:01:40.963Z,41.08
2018-11-11T07:02:15.428Z,40.90
2018-11-11T07:03:00.997Z,42.88
2018-11-11T07:03:46.815Z,40.38
2018-11-11T07:04:20.979Z,41.33
2018-11-11T07:04:55.123Z,40.25
2018-11-11T07:05:29.248Z,43.45
2018-11-11T07:06:03.683Z,41.68
2018-11-11T07:06:38.131Z,40.98
2018-11-11T07:07:12.591Z,41.63
2018-11-11T07:07:46.705Z,43.20
2018-11-11T07:08:20.833Z,42.15
2018-11-11T07:08:55.165Z,40.35
2018-11-11T07:09:29.343Z,41.53
2018-11-11T07:10:03.485Z,41.92
2018-11-11T07:10:37.582Z,43.25
2018-11-11T07:11:11.691Z,42.45
2018-11-11T07:11:45.801Z,41.88
2018-11-11T07:12:19.909Z,42.30
2018-11-11T07:12:54.381Z,43.75
2018-11-11T07:13:28.515Z,42.13
2018-11-11T07:14:02.711Z,42.15
2018-11-11T07:14:36.919Z,41.18
2018-11-11T07:15:11.015Z,41.25
2018-11-11T07:15:45.497Z,42.30
2018-11-11T07:16:19.612Z,40.73
2018-11-11T07:16:53.704Z,42.33
2018-11-11T07:17:27.809Z,43.33
2018-11-11T07:18:01.923Z,43.38
2018-11-11T07:18:36.063Z,41.40
2018-11-11T07:19:10.293Z,39.88
2018-11-11T07:19:44.743Z,41.53
2018-11-11T07:20:18.961Z,42.25
2018-11-11T07:20:53.547Z,40.48
2018-11-11T07:21:27.698Z,40.20
2018-11-11T07:22:01.984Z,41.65
2018-11-11T07:22:36.105Z,41.58
2018-11-11T07:23:10.246Z,42.78